Aviation Digital Data Service (ADDS)

Output produced by METARs form (1326 UTC 19 July 2018)
found at http://www.aviationweather.gov/adds/metars/
 
KHLG 191253Z 06003KT 10SM CLR 19/14 A3012 RMK AO2 SLP194 T01940144
KHLG 191153Z 00000KT 10SM CLR 17/14 A3011 RMK AO2 SLP192 T01670144 10172 20139 53006
KHLG 191053Z 00000KT 3SM BR CLR 14/13 A3010 RMK AO2 SLP190 T01440133
KHLG 191043Z 00000KT 1 3/4SM BR CLR 14/13 A3010 RMK AO2 T01390133
KHLG 190953Z AUTO 00000KT 10SM CLR 15/13 A3010 RMK AO2 SLP187 T01500133
KHLG 190853Z AUTO 05005KT 8SM CLR 15/13 A3009 RMK AO2 SLP186 T01500133 58001
KHLG 190753Z AUTO 00000KT 10SM CLR 14/13 A3009 RMK AO2 SLP186 T01440128
KHLG 190653Z AUTO 00000KT 10SM CLR 17/13 A3010 RMK AO2 SLP187 T01670133
KHLG 190553Z AUTO 33003KT 10SM CLR 17/14 A3009 RMK AO2 SLP186 T01670139 10244 20156 53006
KHLG 190453Z AUTO 03004KT 10SM CLR 17/14 A3009 RMK AO2 SLP184 T01670139 402670156
KHLG 190353Z AUTO 00000KT 10SM CLR 17/13 A3008 RMK AO2 SLP182 T01720133
KHLG 190253Z AUTO 00000KT 10SM CLR 21/13 A3008 RMK AO2 SLP179 T02060128 53009
KHLG 190153Z 00000KT 10SM CLR 22/12 A3006 RMK AO2 SLP175 T02170122
KHLG 190053Z 27003KT 10SM CLR 22/12 A3005 RMK AO2 SLP170 T02220117
KHLG 182353Z 31003KT 10SM CLR 24/13 A3005 RMK AO2 SLP169 T02440128 10267 20239 56002
KHLG 182253Z VRB03KT 10SM OVC060 26/12 A3005 RMK AO2 SLP170 T02560122
KHLG 182153Z 25005KT 10SM BKN060 26/12 A3005 RMK AO2 SLP171 T02560117
KHLG 182053Z 12004KT 10SM BKN055 26/12 A3005 RMK AO2 SLP171 T02560117 58009
KHLG 181953Z 00000KT 10SM BKN055 26/12 A3007 RMK AO2 SLP176 T02560122
KHLG 181853Z 02008KT 10SM BKN055 26/12 A3007 RMK AO2 SLP179 T02610117
KHLG 181753Z 34008KT 310V020 10SM SCT050 25/12 A3008 RMK AO2 SLP181 T02500122 10250 20172 58006
KHLG 181653Z 31006KT 10SM SCT046 23/12 A3009 RMK AO2 SLP184 T02280122
KHLG 181553Z 02009KT 10SM CLR 23/12 A3010 RMK AO2 SLP188 T02280122
KHLG 181453Z 36007KT 10SM FEW040 23/13 A3010 RMK AO2 SLP188 T02280128 51007
KHLG 181353Z 36005KT 10SM CLR 21/14 A3010 RMK AO2 SLP188 T02110139